KBXA/BXA METAR and TAF weather

Enter ICAO airport designator
Station Type Date Time Source
KBXA METAR 2024/05/28 22:15 UTC NOAA

KBXA 282215Z AUTO 28003KT 10SM CLR 32/21 A3007 RMK AO2 T03210210


Station Type Date Time Source
KBXA Decoded METAR 2024/05/28 22:15 UTC NOAA

Bogalusa, George R Carr Memorial Air Field, LA, United States (KBXA) 30-48-49N 089-51-53W
May 28, 2024 - 06:15 PM EDT / 2024.05.28 2215 UTC
Wind: from the W (280 degrees) at 3 MPH (3 KT):0
Visibility: 10 mile(s):0
Sky conditions: clear
Temperature: 89.8 F (32.1 C)
Heat index: 94.6 F (34.8 C):1
Dew Point: 69.8 F (21.0 C)
Relative Humidity: 51%
Pressure (altimeter): 30.07 in. Hg (1018 hPa)
ob: KBXA 282215Z AUTO 28003KT 10SM CLR 32/21 A3007 RMK AO2 T03210210
cycle: 22

Station Type Date Time Source
KBXA TAF UTC NOAA

Error!

Example: see airport list